sensor_id;sensor_type;location;lat;lon;timestamp;pressure;altitude;pressure_sealevel;temperature;humidity
7335;BME280;3708;42.632;23.378;2023-07-31T00:00:58;94005.59;;;22.72;59.97
7335;BME280;3708;42.632;23.378;2023-07-31T00:03:25;94005.75;;;22.88;59.84
7335;BME280;3708;42.632;23.378;2023-07-31T00:05:53;94006.47;;;23.19;58.99
7335;BME280;3708;42.632;23.378;2023-07-31T00:08:20;94008.16;;;23.63;58.36
7335;BME280;3708;42.632;23.378;2023-07-31T00:10:50;94005.13;;;23.84;57.19
7335;BME280;3708;42.632;23.378;2023-07-31T00:13:17;94015.72;;;23.91;57.36
7335;BME280;3708;42.632;23.378;2023-07-31T00:15:46;94019.13;;;24.14;56.77
7335;BME280;3708;42.632;23.378;2023-07-31T00:18:13;94014.22;;;24.33;56.33
7335;BME280;3708;42.632;23.378;2023-07-31T00:20:40;94014.28;;;24.68;55.35
7335;BME280;3708;42.632;23.378;2023-07-31T00:23:08;94019.72;;;24.84;54.60
7335;BME280;3708;42.632;23.378;2023-07-31T00:25:35;94016.44;;;24.96;54.89
7335;BME280;3708;42.632;23.378;2023-07-31T00:28:02;94013.63;;;25.20;55.00
7335;BME280;3708;42.632;23.378;2023-07-31T00:30:29;94011.94;;;25.26;55.23
7335;BME280;3708;42.632;23.378;2023-07-31T00:32:56;94004.53;;;25.33;55.38
7335;BME280;3708;42.632;23.378;2023-07-31T00:35:23;94002.78;;;25.43;55.18
7335;BME280;3708;42.632;23.378;2023-07-31T00:37:50;93996.44;;;25.53;54.71
7335;BME280;3708;42.632;23.378;2023-07-31T00:40:18;93990.31;;;25.52;54.37
7335;BME280;3708;42.632;23.378;2023-07-31T00:42:45;93998.72;;;25.35;54.67
7335;BME280;3708;42.632;23.378;2023-07-31T00:45:11;93985.97;;;25.07;54.54
7335;BME280;3708;42.632;23.378;2023-07-31T00:47:38;93987.44;;;24.52;55.67
7335;BME280;3708;42.632;23.378;2023-07-31T00:50:07;93982.50;;;24.11;56.81
7335;BME280;3708;42.632;23.378;2023-07-31T00:52:35;93984.16;;;23.59;58.49
7335;BME280;3708;42.632;23.378;2023-07-31T00:55:02;93983.47;;;23.75;57.85
7335;BME280;3708;42.632;23.378;2023-07-31T00:57:35;93995.94;;;22.82;60.79
7335;BME280;3708;42.632;23.378;2023-07-31T01:00:03;93986.13;;;23.02;60.90
7335;BME280;3708;42.632;23.378;2023-07-31T01:02:30;94001.13;;;23.19;60.48
7335;BME280;3708;42.632;23.378;2023-07-31T01:04:58;93979.97;;;22.44;62.67
7335;BME280;3708;42.632;23.378;2023-07-31T01:07:30;93977.84;;;22.66;62.95
7335;BME280;3708;42.632;23.378;2023-07-31T01:10:09;93975.94;;;22.93;61.63
7335;BME280;3708;42.632;23.378;2023-07-31T01:12:40;93974.03;;;22.94;62.23
7335;BME280;3708;42.632;23.378;2023-07-31T01:15:08;93980.06;;;22.98;61.25
7335;BME280;3708;42.632;23.378;2023-07-31T01:17:36;93982.97;;;22.80;62.77
7335;BME280;3708;42.632;23.378;2023-07-31T01:20:07;93975.06;;;22.73;63.22
7335;BME280;3708;42.632;23.378;2023-07-31T01:25:56;93965.31;;;22.59;63.25
7335;BME280;3708;42.632;23.378;2023-07-31T01:28:31;93964.63;;;22.18;65.30
7335;BME280;3708;42.632;23.378;2023-07-31T01:31:00;93965.78;;;22.51;63.84
7335;BME280;3708;42.632;23.378;2023-07-31T01:33:29;93960.91;;;22.09;66.22
7335;BME280;3708;42.632;23.378;2023-07-31T01:35:56;93969.44;;;21.52;68.30
7335;BME280;3708;42.632;23.378;2023-07-31T01:38:23;93961.38;;;21.63;68.46
7335;BME280;3708;42.632;23.378;2023-07-31T01:40:51;93957.59;;;21.57;68.49
7335;BME280;3708;42.632;23.378;2023-07-31T01:43:20;93949.50;;;21.67;68.63
7335;BME280;3708;42.632;23.378;2023-07-31T01:45:47;93951.03;;;21.68;68.19
7335;BME280;3708;42.632;23.378;2023-07-31T01:48:14;93946.06;;;21.70;68.82
7335;BME280;3708;42.632;23.378;2023-07-31T01:50:40;93951.72;;;22.17;67.26
7335;BME280;3708;42.632;23.378;2023-07-31T01:53:07;93949.91;;;21.66;69.12
7335;BME280;3708;42.632;23.378;2023-07-31T01:55:34;93963.63;;;21.64;69.50
7335;BME280;3708;42.632;23.378;2023-07-31T01:58:01;93982.31;;;21.13;71.03
7335;BME280;3708;42.632;23.378;2023-07-31T02:00:29;93961.16;;;21.87;69.06
7335;BME280;3708;42.632;23.378;2023-07-31T02:02:56;93972.09;;;20.97;72.13
7335;BME280;3708;42.632;23.378;2023-07-31T02:05:23;93964.81;;;21.12;73.18
7335;BME280;3708;42.632;23.378;2023-07-31T02:07:49;93968.47;;;21.32;71.55
7335;BME280;3708;42.632;23.378;2023-07-31T02:10:16;93975.16;;;21.54;70.40
7335;BME280;3708;42.632;23.378;2023-07-31T02:12:43;93983.72;;;21.28;71.65
7335;BME280;3708;42.632;23.378;2023-07-31T02:15:10;93979.56;;;21.20;72.26
7335;BME280;3708;42.632;23.378;2023-07-31T02:17:38;93971.59;;;21.23;72.54
7335;BME280;3708;42.632;23.378;2023-07-31T02:20:06;93982.00;;;21.00;73.14
7335;BME280;3708;42.632;23.378;2023-07-31T02:22:33;93973.44;;;21.30;72.54
7335;BME280;3708;42.632;23.378;2023-07-31T02:25:00;93983.38;;;21.26;71.75
7335;BME280;3708;42.632;23.378;2023-07-31T02:27:26;93988.00;;;21.15;73.15
7335;BME280;3708;42.632;23.378;2023-07-31T02:29:53;93978.63;;;20.89;73.85
7335;BME280;3708;42.632;23.378;2023-07-31T02:32:20;93991.25;;;21.40;71.89
7335;BME280;3708;42.632;23.378;2023-07-31T02:34:49;93978.94;;;21.53;71.96
7335;BME280;3708;42.632;23.378;2023-07-31T02:37:15;93984.91;;;21.68;70.99
7335;BME280;3708;42.632;23.378;2023-07-31T02:39:42;93974.16;;;21.78;70.97
7335;BME280;3708;42.632;23.378;2023-07-31T02:42:09;93976.78;;;22.23;67.93
7335;BME280;3708;42.632;23.378;2023-07-31T02:44:36;93974.06;;;22.30;68.13
7335;BME280;3708;42.632;23.378;2023-07-31T02:47:03;93963.94;;;22.11;68.75
7335;BME280;3708;42.632;23.378;2023-07-31T02:49:30;93964.97;;;22.54;67.29
7335;BME280;3708;42.632;23.378;2023-07-31T02:51:58;93978.28;;;22.27;67.94
7335;BME280;3708;42.632;23.378;2023-07-31T02:54:25;93984.00;;;21.88;69.04
7335;BME280;3708;42.632;23.378;2023-07-31T02:56:52;93986.03;;;21.70;70.20
7335;BME280;3708;42.632;23.378;2023-07-31T02:59:20;93982.84;;;22.27;67.81
7335;BME280;3708;42.632;23.378;2023-07-31T03:01:47;93988.53;;;21.91;69.30
7335;BME280;3708;42.632;23.378;2023-07-31T03:04:13;93986.22;;;21.93;68.88
7335;BME280;3708;42.632;23.378;2023-07-31T03:06:40;93988.66;;;21.77;69.25
7335;BME280;3708;42.632;23.378;2023-07-31T03:09:09;93988.47;;;22.36;67.37
7335;BME280;3708;42.632;23.378;2023-07-31T03:11:35;93985.22;;;21.77;69.28
7335;BME280;3708;42.632;23.378;2023-07-31T03:14:02;93986.44;;;21.65;69.95
7335;BME280;3708;42.632;23.378;2023-07-31T03:16:29;93987.13;;;21.76;69.48
7335;BME280;3708;42.632;23.378;2023-07-31T03:18:56;93993.06;;;21.50;70.68
7335;BME280;3708;42.632;23.378;2023-07-31T03:21:23;94004.06;;;21.56;70.65
7335;BME280;3708;42.632;23.378;2023-07-31T03:23:50;93995.34;;;21.48;70.47
7335;BME280;3708;42.632;23.378;2023-07-31T03:26:18;93997.06;;;21.72;70.31
7335;BME280;3708;42.632;23.378;2023-07-31T03:28:45;94010.88;;;22.08;68.66
7335;BME280;3708;42.632;23.378;2023-07-31T03:31:12;94002.44;;;21.65;70.18
7335;BME280;3708;42.632;23.378;2023-07-31T03:33:38;94010.09;;;21.63;70.51
7335;BME280;3708;42.632;23.378;2023-07-31T03:36:05;94012.47;;;21.54;70.94
7335;BME280;3708;42.632;23.378;2023-07-31T03:38:33;94002.16;;;22.00;69.41
7335;BME280;3708;42.632;23.378;2023-07-31T03:41:00;94008.09;;;22.15;68.25
7335;BME280;3708;42.632;23.378;2023-07-31T03:43:29;94011.66;;;22.39;66.86
7335;BME280;3708;42.632;23.378;2023-07-31T03:45:56;94012.53;;;21.91;68.99
7335;BME280;3708;42.632;23.378;2023-07-31T03:48:22;94009.81;;;21.98;68.93
7335;BME280;3708;42.632;23.378;2023-07-31T03:50:49;94012.16;;;21.89;69.56
7335;BME280;3708;42.632;23.378;2023-07-31T03:53:16;94010.69;;;22.56;66.57
7335;BME280;3708;42.632;23.378;2023-07-31T03:55:43;94011.09;;;21.83;69.02
7335;BME280;3708;42.632;23.378;2023-07-31T03:58:10;94032.97;;;21.61;68.96
7335;BME280;3708;42.632;23.378;2023-07-31T04:00:39;94033.88;;;21.91;67.47
7335;BME280;3708;42.632;23.378;2023-07-31T04:03:06;94044.72;;;21.67;69.11
7335;BME280;3708;42.632;23.378;2023-07-31T04:05:38;94044.56;;;21.88;68.28
7335;BME280;3708;42.632;23.378;2023-07-31T04:08:05;94040.13;;;21.67;69.05
7335;BME280;3708;42.632;23.378;2023-07-31T04:10:38;94043.22;;;21.62;69.33
7335;BME280;3708;42.632;23.378;2023-07-31T04:13:06;94039.22;;;21.33;70.37
7335;BME280;3708;42.632;23.378;2023-07-31T04:15:33;94040.47;;;21.18;70.79
7335;BME280;3708;42.632;23.378;2023-07-31T04:18:01;94042.78;;;21.71;68.86
7335;BME280;3708;42.632;23.378;2023-07-31T04:20:28;94042.22;;;21.42;70.73
7335;BME280;3708;42.632;23.378;2023-07-31T04:22:56;94035.84;;;21.80;69.01
7335;BME280;3708;42.632;23.378;2023-07-31T04:25:23;94040.56;;;21.59;69.33
7335;BME280;3708;42.632;23.378;2023-07-31T04:27:50;94039.13;;;21.98;68.10
7335;BME280;3708;42.632;23.378;2023-07-31T04:30:17;94035.91;;;21.73;68.76
7335;BME280;3708;42.632;23.378;2023-07-31T04:32:44;94042.38;;;22.20;67.33
7335;BME280;3708;42.632;23.378;2023-07-31T04:35:12;94036.13;;;22.34;66.18
7335;BME280;3708;42.632;23.378;2023-07-31T04:37:39;94041.03;;;21.98;66.88
7335;BME280;3708;42.632;23.378;2023-07-31T04:40:07;94045.75;;;21.83;67.51
7335;BME280;3708;42.632;23.378;2023-07-31T04:42:45;94047.09;;;22.06;66.73
7335;BME280;3708;42.632;23.378;2023-07-31T04:45:18;94048.25;;;21.53;67.84
7335;BME280;3708;42.632;23.378;2023-07-31T04:47:45;94044.97;;;21.86;66.42
7335;BME280;3708;42.632;23.378;2023-07-31T04:50:19;94054.97;;;21.68;67.06
7335;BME280;3708;42.632;23.378;2023-07-31T04:52:49;94041.16;;;21.80;66.51
7335;BME280;3708;42.632;23.378;2023-07-31T04:55:17;94045.63;;;21.97;65.91
7335;BME280;3708;42.632;23.378;2023-07-31T04:57:44;94063.38;;;21.67;66.59
7335;BME280;3708;42.632;23.378;2023-07-31T05:00:11;94033.72;;;21.61;65.89
7335;BME280;3708;42.632;23.378;2023-07-31T05:02:38;94031.34;;;21.70;65.90
7335;BME280;3708;42.632;23.378;2023-07-31T05:05:06;94060.88;;;21.97;64.83
7335;BME280;3708;42.632;23.378;2023-07-31T05:07:35;94032.97;;;22.05;65.85
7335;BME280;3708;42.632;23.378;2023-07-31T05:10:02;94036.00;;;22.44;63.94
7335;BME280;3708;42.632;23.378;2023-07-31T05:12:31;94033.63;;;22.87;62.64
7335;BME280;3708;42.632;23.378;2023-07-31T05:15:01;94028.22;;;23.21;61.42
7335;BME280;3708;42.632;23.378;2023-07-31T05:17:27;94030.75;;;23.01;62.27
7335;BME280;3708;42.632;23.378;2023-07-31T05:19:54;94032.22;;;22.42;64.33
7335;BME280;3708;42.632;23.378;2023-07-31T05:22:21;94035.97;;;22.11;64.54
7335;BME280;3708;42.632;23.378;2023-07-31T05:24:49;94031.44;;;22.45;64.57
7335;BME280;3708;42.632;23.378;2023-07-31T05:27:16;94033.22;;;22.21;64.96
7335;BME280;3708;42.632;23.378;2023-07-31T05:29:44;94023.75;;;22.84;63.51
7335;BME280;3708;42.632;23.378;2023-07-31T05:32:11;94026.38;;;22.88;62.54
7335;BME280;3708;42.632;23.378;2023-07-31T05:34:41;94027.25;;;22.77;63.03
7335;BME280;3708;42.632;23.378;2023-07-31T05:37:09;94030.09;;;22.63;62.98
7335;BME280;3708;42.632;23.378;2023-07-31T05:39:36;94026.13;;;22.04;64.17
7335;BME280;3708;42.632;23.378;2023-07-31T05:42:05;94026.41;;;22.17;63.91
7335;BME280;3708;42.632;23.378;2023-07-31T05:44:32;94031.75;;;22.17;63.55
7335;BME280;3708;42.632;23.378;2023-07-31T05:46:59;94033.44;;;22.71;62.44
7335;BME280;3708;42.632;23.378;2023-07-31T05:49:26;94021.06;;;22.84;61.88
7335;BME280;3708;42.632;23.378;2023-07-31T05:51:53;94026.88;;;22.42;62.19
7335;BME280;3708;42.632;23.378;2023-07-31T05:54:19;94025.53;;;22.94;61.22
7335;BME280;3708;42.632;23.378;2023-07-31T05:56:46;94026.88;;;22.42;61.81
7335;BME280;3708;42.632;23.378;2023-07-31T05:59:16;94039.13;;;23.03;60.15
7335;BME280;3708;42.632;23.378;2023-07-31T06:01:43;94058.50;;;23.11;58.50
7335;BME280;3708;42.632;23.378;2023-07-31T06:04:10;94038.56;;;22.89;58.84
7335;BME280;3708;42.632;23.378;2023-07-31T06:06:36;94061.28;;;23.34;57.62
7335;BME280;3708;42.632;23.378;2023-07-31T06:09:03;94052.59;;;22.62;58.95
7335;BME280;3708;42.632;23.378;2023-07-31T06:11:30;94058.72;;;23.23;57.56
7335;BME280;3708;42.632;23.378;2023-07-31T06:13:57;94041.22;;;22.55;58.85
7335;BME280;3708;42.632;23.378;2023-07-31T06:16:26;94053.13;;;22.84;57.93
7335;BME280;3708;42.632;23.378;2023-07-31T06:18:52;94051.03;;;22.68;57.36
7335;BME280;3708;42.632;23.378;2023-07-31T06:21:19;94039.34;;;23.46;55.36
7335;BME280;3708;42.632;23.378;2023-07-31T06:23:46;94041.28;;;23.42;55.34
7335;BME280;3708;42.632;23.378;2023-07-31T06:26:13;94041.59;;;23.47;55.73
7335;BME280;3708;42.632;23.378;2023-07-31T06:28:40;94038.19;;;23.70;54.23
7335;BME280;3708;42.632;23.378;2023-07-31T06:31:07;94035.13;;;23.95;54.77
7335;BME280;3708;42.632;23.378;2023-07-31T06:33:35;94044.56;;;23.26;54.63
7335;BME280;3708;42.632;23.378;2023-07-31T06:36:02;94036.03;;;23.62;53.33
7335;BME280;3708;42.632;23.378;2023-07-31T06:38:29;94038.16;;;23.20;53.47
7335;BME280;3708;42.632;23.378;2023-07-31T06:40:56;94046.69;;;23.38;53.40
7335;BME280;3708;42.632;23.378;2023-07-31T06:43:23;94041.50;;;22.98;54.11
7335;BME280;3708;42.632;23.378;2023-07-31T06:45:49;94036.97;;;23.21;54.46
7335;BME280;3708;42.632;23.378;2023-07-31T06:48:16;94041.06;;;23.83;52.70
7335;BME280;3708;42.632;23.378;2023-07-31T06:50:45;94037.97;;;23.84;52.91
7335;BME280;3708;42.632;23.378;2023-07-31T06:53:13;94036.84;;;23.59;53.18
7335;BME280;3708;42.632;23.378;2023-07-31T06:55:40;94033.06;;;24.06;52.44
7335;BME280;3708;42.632;23.378;2023-07-31T06:58:07;94035.22;;;23.65;53.44
7335;BME280;3708;42.632;23.378;2023-07-31T07:00:34;94042.28;;;23.78;53.70
7335;BME280;3708;42.632;23.378;2023-07-31T07:03:00;94047.03;;;23.67;54.30
7335;BME280;3708;42.632;23.378;2023-07-31T07:05:27;94041.16;;;23.76;53.93
7335;BME280;3708;42.632;23.378;2023-07-31T07:07:56;94050.59;;;23.30;54.48
7335;BME280;3708;42.632;23.378;2023-07-31T07:10:22;94031.59;;;23.52;54.47
7335;BME280;3708;42.632;23.378;2023-07-31T07:12:49;94046.78;;;23.01;55.25
7335;BME280;3708;42.632;23.378;2023-07-31T07:15:16;94020.72;;;22.82;55.06
7335;BME280;3708;42.632;23.378;2023-07-31T07:17:43;94044.00;;;23.12;54.86
7335;BME280;3708;42.632;23.378;2023-07-31T07:20:10;94043.56;;;23.43;54.20
7335;BME280;3708;42.632;23.378;2023-07-31T07:22:37;94039.44;;;23.89;52.54
7335;BME280;3708;42.632;23.378;2023-07-31T07:25:06;94042.56;;;23.84;52.19
7335;BME280;3708;42.632;23.378;2023-07-31T07:27:33;94057.03;;;23.86;51.93
7335;BME280;3708;42.632;23.378;2023-07-31T07:30:01;94061.03;;;23.21;53.77
7335;BME280;3708;42.632;23.378;2023-07-31T07:32:29;94052.81;;;23.66;52.99
7335;BME280;3708;42.632;23.378;2023-07-31T07:34:56;94042.66;;;23.77;52.29
7335;BME280;3708;42.632;23.378;2023-07-31T07:37:22;94054.25;;;23.93;51.13
7335;BME280;3708;42.632;23.378;2023-07-31T07:39:49;94061.28;;;23.84;51.21
7335;BME280;3708;42.632;23.378;2023-07-31T07:42:18;94054.16;;;24.23;51.01
7335;BME280;3708;42.632;23.378;2023-07-31T07:44:45;94057.78;;;24.76;50.01
7335;BME280;3708;42.632;23.378;2023-07-31T07:47:12;94085.63;;;24.82;49.33
7335;BME280;3708;42.632;23.378;2023-07-31T07:49:39;94072.16;;;23.96;51.43
7335;BME280;3708;42.632;23.378;2023-07-31T07:52:07;94084.13;;;24.15;50.73
7335;BME280;3708;42.632;23.378;2023-07-31T07:54:34;94074.47;;;23.94;51.04
7335;BME280;3708;42.632;23.378;2023-07-31T07:57:02;94083.34;;;24.38;50.34
7335;BME280;3708;42.632;23.378;2023-07-31T07:59:31;94078.81;;;24.77;50.00
7335;BME280;3708;42.632;23.378;2023-07-31T08:02:04;94077.78;;;24.05;51.07
7335;BME280;3708;42.632;23.378;2023-07-31T08:04:47;94068.09;;;24.77;48.79
7335;BME280;3708;42.632;23.378;2023-07-31T08:07:19;94065.59;;;24.67;49.03
7335;BME280;3708;42.632;23.378;2023-07-31T08:09:47;94068.72;;;25.40;47.36
7335;BME280;3708;42.632;23.378;2023-07-31T08:12:14;94068.41;;;25.54;48.04
7335;BME280;3708;42.632;23.378;2023-07-31T08:14:43;94057.19;;;25.24;48.08
7335;BME280;3708;42.632;23.378;2023-07-31T08:17:09;94079.81;;;24.21;49.89
7335;BME280;3708;42.632;23.378;2023-07-31T08:19:36;94068.03;;;24.38;48.59
7335;BME280;3708;42.632;23.378;2023-07-31T08:22:03;94078.28;;;24.43;48.75
7335;BME280;3708;42.632;23.378;2023-07-31T08:24:31;94067.75;;;24.75;48.58
7335;BME280;3708;42.632;23.378;2023-07-31T08:26:58;94063.63;;;24.90;47.20
7335;BME280;3708;42.632;23.378;2023-07-31T08:29:25;94073.78;;;25.19;46.80
7335;BME280;3708;42.632;23.378;2023-07-31T08:31:53;94078.16;;;25.09;46.83
7335;BME280;3708;42.632;23.378;2023-07-31T08:34:20;94072.56;;;25.39;46.80
7335;BME280;3708;42.632;23.378;2023-07-31T08:36:49;94067.31;;;25.16;46.75
7335;BME280;3708;42.632;23.378;2023-07-31T08:39:16;94081.84;;;25.35;46.28
7335;BME280;3708;42.632;23.378;2023-07-31T08:41:44;94062.81;;;25.29;45.90
7335;BME280;3708;42.632;23.378;2023-07-31T08:44:12;94061.28;;;25.12;46.12
7335;BME280;3708;42.632;23.378;2023-07-31T08:46:40;94073.03;;;26.18;44.04
7335;BME280;3708;42.632;23.378;2023-07-31T08:49:10;94067.69;;;25.70;45.05
7335;BME280;3708;42.632;23.378;2023-07-31T08:51:37;94074.22;;;26.01;44.63
7335;BME280;3708;42.632;23.378;2023-07-31T08:54:05;94068.44;;;26.35;43.69
7335;BME280;3708;42.632;23.378;2023-07-31T08:56:32;94070.84;;;27.03;42.20
7335;BME280;3708;42.632;23.378;2023-07-31T08:59:18;94083.16;;;25.46;44.98
7335;BME280;3708;42.632;23.378;2023-07-31T09:01:50;94067.25;;;25.71;44.85
7335;BME280;3708;42.632;23.378;2023-07-31T09:05:02;94082.84;;;25.93;44.32
7335;BME280;3708;42.632;23.378;2023-07-31T09:08:11;94067.50;;;25.61;44.57
7335;BME280;3708;42.632;23.378;2023-07-31T09:10:41;94064.00;;;25.64;45.09
7335;BME280;3708;42.632;23.378;2023-07-31T09:13:08;94078.06;;;25.68;44.35
7335;BME280;3708;42.632;23.378;2023-07-31T09:15:35;94065.06;;;25.66;44.46
7335;BME280;3708;42.632;23.378;2023-07-31T09:18:02;94092.59;;;26.03;42.83
7335;BME280;3708;42.632;23.378;2023-07-31T09:20:34;94062.31;;;26.02;43.07
7335;BME280;3708;42.632;23.378;2023-07-31T09:23:07;94050.13;;;26.75;41.26
7335;BME280;3708;42.632;23.378;2023-07-31T09:25:35;94046.22;;;26.18;42.26
7335;BME280;3708;42.632;23.378;2023-07-31T09:28:03;94059.69;;;25.99;42.12
7335;BME280;3708;42.632;23.378;2023-07-31T09:30:31;94047.50;;;26.71;41.18
7335;BME280;3708;42.632;23.378;2023-07-31T09:33:02;94048.63;;;26.29;41.68
7335;BME280;3708;42.632;23.378;2023-07-31T09:35:30;94046.34;;;27.13;39.83
7335;BME280;3708;42.632;23.378;2023-07-31T09:38:00;94042.75;;;26.34;41.68
7335;BME280;3708;42.632;23.378;2023-07-31T09:40:48;94044.75;;;26.46;41.51
7335;BME280;3708;42.632;23.378;2023-07-31T09:43:20;94026.56;;;27.70;40.03
7335;BME280;3708;42.632;23.378;2023-07-31T09:45:48;94025.22;;;28.13;39.24
7335;BME280;3708;42.632;23.378;2023-07-31T09:48:16;94042.19;;;27.38;40.01
7335;BME280;3708;42.632;23.378;2023-07-31T09:50:45;94034.53;;;27.24;40.98
7335;BME280;3708;42.632;23.378;2023-07-31T09:53:14;94030.34;;;27.73;39.47
7335;BME280;3708;42.632;23.378;2023-07-31T09:55:42;94023.25;;;27.54;40.53
7335;BME280;3708;42.632;23.378;2023-07-31T09:58:10;94037.09;;;28.03;39.13
7335;BME280;3708;42.632;23.378;2023-07-31T10:00:38;94037.00;;;27.43;40.18
7335;BME280;3708;42.632;23.378;2023-07-31T10:03:07;94034.66;;;27.70;39.99
7335;BME280;3708;42.632;23.378;2023-07-31T10:05:35;94038.72;;;28.68;37.64
7335;BME280;3708;42.632;23.378;2023-07-31T10:08:03;94032.38;;;27.81;38.86
7335;BME280;3708;42.632;23.378;2023-07-31T10:10:32;94023.63;;;28.03;39.02
7335;BME280;3708;42.632;23.378;2023-07-31T10:13:01;94035.59;;;27.76;39.09
7335;BME280;3708;42.632;23.378;2023-07-31T10:15:29;94031.59;;;27.18;40.19
7335;BME280;3708;42.632;23.378;2023-07-31T10:17:57;94034.28;;;27.18;40.09
7335;BME280;3708;42.632;23.378;2023-07-31T10:20:26;94019.03;;;27.15;39.52
7335;BME280;3708;42.632;23.378;2023-07-31T10:22:54;94019.78;;;28.38;38.17
7335;BME280;3708;42.632;23.378;2023-07-31T10:25:22;94032.53;;;28.59;37.72
7335;BME280;3708;42.632;23.378;2023-07-31T10:27:50;94020.84;;;27.18;39.57
7335;BME280;3708;42.632;23.378;2023-07-31T10:30:24;94020.78;;;27.47;38.99
7335;BME280;3708;42.632;23.378;2023-07-31T10:32:53;94026.25;;;27.68;37.70
7335;BME280;3708;42.632;23.378;2023-07-31T10:35:21;94020.88;;;27.43;37.70
7335;BME280;3708;42.632;23.378;2023-07-31T10:37:48;94013.53;;;27.81;37.80
7335;BME280;3708;42.632;23.378;2023-07-31T10:40:16;93999.34;;;28.49;36.46
7335;BME280;3708;42.632;23.378;2023-07-31T10:42:46;94008.97;;;27.91;37.28
7335;BME280;3708;42.632;23.378;2023-07-31T10:45:24;94005.09;;;29.25;35.58
7335;BME280;3708;42.632;23.378;2023-07-31T10:47:58;93997.72;;;28.95;35.72
7335;BME280;3708;42.632;23.378;2023-07-31T10:50:37;94009.28;;;28.74;36.50
7335;BME280;3708;42.632;23.378;2023-07-31T10:53:04;94004.00;;;28.71;36.50
7335;BME280;3708;42.632;23.378;2023-07-31T10:55:35;93998.78;;;27.73;37.87
7335;BME280;3708;42.632;23.378;2023-07-31T10:58:07;94002.28;;;28.21;36.84
7335;BME280;3708;42.632;23.378;2023-07-31T11:00:37;93993.16;;;28.06;37.01
7335;BME280;3708;42.632;23.378;2023-07-31T11:03:05;93998.59;;;28.92;35.42
7335;BME280;3708;42.632;23.378;2023-07-31T11:06:01;93998.03;;;29.68;33.72
7335;BME280;3708;42.632;23.378;2023-07-31T11:08:30;93993.34;;;28.89;34.70
7335;BME280;3708;42.632;23.378;2023-07-31T11:11:08;94003.78;;;29.79;33.66
7335;BME280;3708;42.632;23.378;2023-07-31T11:13:41;93977.91;;;28.46;34.48
7335;BME280;3708;42.632;23.378;2023-07-31T11:16:10;93983.84;;;29.36;34.16
7335;BME280;3708;42.632;23.378;2023-07-31T11:18:39;93996.97;;;28.73;34.98
7335;BME280;3708;42.632;23.378;2023-07-31T11:21:06;93980.84;;;29.34;33.64
7335;BME280;3708;42.632;23.378;2023-07-31T11:23:33;93975.63;;;30.07;32.91
7335;BME280;3708;42.632;23.378;2023-07-31T11:26:00;93978.94;;;30.20;32.67
7335;BME280;3708;42.632;23.378;2023-07-31T11:28:32;93986.72;;;30.00;32.64
7335;BME280;3708;42.632;23.378;2023-07-31T11:31:00;93992.41;;;29.44;33.57
7335;BME280;3708;42.632;23.378;2023-07-31T11:33:28;93981.38;;;29.20;33.30
7335;BME280;3708;42.632;23.378;2023-07-31T11:35:55;93999.34;;;28.49;33.54
7335;BME280;3708;42.632;23.378;2023-07-31T11:38:23;93974.25;;;29.35;32.56
7335;BME280;3708;42.632;23.378;2023-07-31T11:40:51;93984.47;;;29.80;32.19
7335;BME280;3708;42.632;23.378;2023-07-31T11:43:18;93994.41;;;28.48;34.08
7335;BME280;3708;42.632;23.378;2023-07-31T11:45:47;93984.97;;;28.65;33.71
7335;BME280;3708;42.632;23.378;2023-07-31T11:52:09;93970.72;;;29.57;33.06
7335;BME280;3708;42.632;23.378;2023-07-31T11:54:49;93970.81;;;29.84;32.53
7335;BME280;3708;42.632;23.378;2023-07-31T11:58:04;93969.28;;;29.83;32.64
7335;BME280;3708;42.632;23.378;2023-07-31T12:00:43;93976.25;;;28.61;34.87
7335;BME280;3708;42.632;23.378;2023-07-31T12:03:13;93964.00;;;28.69;34.99
7335;BME280;3708;42.632;23.378;2023-07-31T12:05:54;93960.66;;;29.57;33.42
7335;BME280;3708;42.632;23.378;2023-07-31T12:08:39;93966.94;;;30.21;32.74
7335;BME280;3708;42.632;23.378;2023-07-31T12:11:18;93962.63;;;29.66;32.71
7335;BME280;3708;42.632;23.378;2023-07-31T12:13:51;93969.03;;;29.41;32.88
7335;BME280;3708;42.632;23.378;2023-07-31T12:16:26;93957.91;;;29.88;32.12
7335;BME280;3708;42.632;23.378;2023-07-31T12:19:07;93954.44;;;30.69;31.32
7335;BME280;3708;42.632;23.378;2023-07-31T12:21:34;93962.31;;;30.49;31.51
7335;BME280;3708;42.632;23.378;2023-07-31T12:24:04;93961.13;;;30.32;31.75
7335;BME280;3708;42.632;23.378;2023-07-31T12:26:34;93949.22;;;30.20;31.85
7335;BME280;3708;42.632;23.378;2023-07-31T12:29:01;93952.66;;;31.26;30.82
7335;BME280;3708;42.632;23.378;2023-07-31T12:31:28;93952.25;;;30.31;31.78
7335;BME280;3708;42.632;23.378;2023-07-31T12:33:55;93951.75;;;29.29;33.19
7335;BME280;3708;42.632;23.378;2023-07-31T12:36:23;93951.28;;;29.22;33.52
7335;BME280;3708;42.632;23.378;2023-07-31T12:38:51;93942.81;;;29.42;33.66
7335;BME280;3708;42.632;23.378;2023-07-31T12:41:19;93949.50;;;29.28;34.24
7335;BME280;3708;42.632;23.378;2023-07-31T12:43:46;93945.75;;;29.83;33.61
7335;BME280;3708;42.632;23.378;2023-07-31T12:46:13;93945.94;;;29.40;33.91
7335;BME280;3708;42.632;23.378;2023-07-31T12:48:41;93951.72;;;29.69;34.14
7335;BME280;3708;42.632;23.378;2023-07-31T12:51:08;93941.28;;;30.35;32.37
7335;BME280;3708;42.632;23.378;2023-07-31T12:53:35;93935.31;;;29.46;33.01
7335;BME280;3708;42.632;23.378;2023-07-31T12:56:02;93937.53;;;28.98;33.67
7335;BME280;3708;42.632;23.378;2023-07-31T12:58:30;93923.28;;;28.67;33.98
7335;BME280;3708;42.632;23.378;2023-07-31T13:00:57;93930.44;;;28.39;34.54
7335;BME280;3708;42.632;23.378;2023-07-31T13:03:24;93931.38;;;28.98;33.75
7335;BME280;3708;42.632;23.378;2023-07-31T13:05:52;93919.03;;;29.76;32.32
7335;BME280;3708;42.632;23.378;2023-07-31T13:08:19;93923.59;;;29.39;32.70
7335;BME280;3708;42.632;23.378;2023-07-31T13:10:45;93921.69;;;29.58;32.53
7335;BME280;3708;42.632;23.378;2023-07-31T13:13:12;93934.88;;;29.56;32.92
7335;BME280;3708;42.632;23.378;2023-07-31T13:15:41;93922.03;;;29.20;33.45
7335;BME280;3708;42.632;23.378;2023-07-31T13:18:08;93913.47;;;29.13;33.43
7335;BME280;3708;42.632;23.378;2023-07-31T13:20:35;93925.44;;;29.70;32.55
7335;BME280;3708;42.632;23.378;2023-07-31T13:23:07;93915.59;;;29.94;32.62
7335;BME280;3708;42.632;23.378;2023-07-31T13:25:34;93931.53;;;29.03;34.20